Wetterdaten: Woche 15.08.11 - 21.08.11 (KW33)
Datum Zeit Temp. Innen Temp. Aussen UV X Diff Temp. Feuchte Inne Feuchte Auss Sonnenschein Luftdruck Regen ab 0,1 Wind Sonnenschein T Regendauer Windben
15.08.2011 00:00 22,6 C 15,2 C 0,0 UV-I 0,0 C 66 % 92 % 0 % 1010,4 hPa 0,0 l/m 0,0 km/h (0 Bft) 0,00 h 0,00 h 0,1 km/h (0 Bft)
15.08.2011 01:00 22,4 C 15,2 C 0,0 UV-I 0,0 C 66 % 92 % 0 % 1010,9 hPa 0,0 l/m 0,0 km/h (0 Bft) 0,00 h 0,00 h 0,0 km/h (0 Bft)
15.08.2011 02:00 22,3 C 15,0 C 0,0 UV-I 0,0 C 66 % 93 % 0 % 1011,0 hPa 0,0 l/m 0,0 km/h (0 Bft) 0,00 h 0,00 h 0,3 km/h (0 Bft)
15.08.2011 03:00 22,2 C 14,3 C 0,0 UV-I 0,0 C 66 % 92 % 0 % 1011,0 hPa 0,0 l/m 0,0 km/h (0 Bft) 0,00 h 0,00 h 0,0 km/h (0 Bft)
15.08.2011 04:00 22,1 C 14,1 C 0,0 UV-I 0,0 C 66 % 93 % 0 % 1011,2 hPa 0,0 l/m 0,1 km/h (0 Bft) 0,00 h 0,00 h 0,2 km/h (0 Bft)
15.08.2011 05:00 22,0 C 13,9 C 0,0 UV-I 0,0 C 65 % 93 % 0 % 1011,2 hPa 0,0 l/m 0,2 km/h (0 Bft) 0,00 h 0,00 h 0,3 km/h (0 Bft)
15.08.2011 06:00 21,9 C 13,8 C 0,0 UV-I 0,0 C 65 % 93 % 0 % 1011,7 hPa 0,0 l/m 0,1 km/h (0 Bft) 0,00 h 0,00 h 0,0 km/h (0 Bft)
15.08.2011 07:00 21,9 C 13,7 C 0,0 UV-I 0,0 C 65 % 93 % 0 % 1012,3 hPa 0,0 l/m 0,5 km/h (0 Bft) 0,00 h 0,00 h 1,1 km/h (1 Bft)
15.08.2011 08:00 21,9 C 14,3 C 0,0 UV-I 1,6 C 63 % 92 % 33 % 1012,7 hPa 0,0 l/m 1,4 km/h (1 Bft) 0,30 h 0,00 h 2,4 km/h (1 Bft)
15.08.2011 09:00 21,9 C 16,1 C 0,4 UV-I 7,3 C 63 % 89 % 100 % 1013,2 hPa 0,0 l/m 2,9 km/h (1 Bft) 1,00 h 0,00 h 4,8 km/h (1 Bft)
15.08.2011 10:00 22,0 C 17,6 C 1,0 UV-I 7,2 C 62 % 83 % 100 % 1013,8 hPa 0,0 l/m 3,3 km/h (1 Bft) 1,00 h 0,00 h 3,9 km/h (1 Bft)
15.08.2011 11:00 22,3 C 18,7 C 3,0 UV-I 6,4 C 62 % 79 % 100 % 1014,5 hPa 0,1 l/m 5,4 km/h (1 Bft) 1,00 h 0,00 h 6,1 km/h (2 Bft)
15.08.2011 12:00 22,7 C 19,9 C 2,2 UV-I 6,7 C 62 % 76 % 100 % 1015,0 hPa 0,0 l/m 4,4 km/h (1 Bft) 1,00 h 0,00 h 5,9 km/h (2 Bft)
15.08.2011 13:00 23,2 C 21,0 C 2,6 UV-I 5,5 C 62 % 72 % 100 % 1015,5 hPa 0,0 l/m 7,3 km/h (2 Bft) 1,00 h 0,00 h 8,4 km/h (2 Bft)
15.08.2011 14:00 24,0 C 21,5 C 3,2 UV-I 5,2 C 60 % 71 % 99 % 1016,3 hPa 0,0 l/m 7,8 km/h (2 Bft) 0,97 h 0,00 h 7,9 km/h (2 Bft)
15.08.2011 15:00 25,1 C 22,4 C 3,8 UV-I 6,1 C 58 % 65 % 100 % 1016,8 hPa 0,0 l/m 4,8 km/h (1 Bft) 1,00 h 0,00 h 4,7 km/h (1 Bft)
15.08.2011 16:00 25,7 C 22,7 C 2,5 UV-I 3,9 C 55 % 59 % 87 % 1017,1 hPa 0,0 l/m 7,2 km/h (2 Bft) 0,73 h 0,00 h 9,1 km/h (2 Bft)
15.08.2011 17:00 25,3 C 20,7 C 1,1 UV-I 2,2 C 55 % 62 % 61 % 1017,3 hPa 0,0 l/m 8,2 km/h (2 Bft) 0,43 h 0,00 h 8,2 km/h (2 Bft)
15.08.2011 18:00 25,2 C 21,0 C 0,8 UV-I 1,8 C 55 % 60 % 51 % 1017,4 hPa 0,0 l/m 6,2 km/h (2 Bft) 0,33 h 0,00 h 6,1 km/h (2 Bft)
15.08.2011 19:00 24,7 C 20,5 C 0,1 UV-I 0,1 C 56 % 64 % 2 % 1017,6 hPa 0,0 l/m 3,5 km/h (1 Bft) 0,00 h 0,00 h 4,3 km/h (1 Bft)
15.08.2011 20:00 24,3 C 19,1 C 0,0 UV-I 0,0 C 57 % 66 % 0 % 1017,9 hPa 0,0 l/m 1,0 km/h (0 Bft) 0,00 h 0,00 h 0,7 km/h (0 Bft)
15.08.2011 21:00 23,9 C 17,1 C 0,0 UV-I 0,0 C 58 % 74 % 0 % 1018,6 hPa 0,0 l/m 0,0 km/h (0 Bft) 0,00 h 0,00 h 0,0 km/h (0 Bft)
15.08.2011 22:00 23,5 C 15,6 C 0,0 UV-I 0,0 C 59 % 80 % 0 % 1019,0 hPa 0,0 l/m 0,0 km/h (0 Bft) 0,00 h 0,00 h 0,0 km/h (0 Bft)
15.08.2011 23:00 23,2 C 14,5 C 0,0 UV-I 0,0 C 60 % 84 % 0 % 1019,3 hPa 0,0 l/m 0,0 km/h (0 Bft) 0,00 h 0,00 h 0,0 km/h (0 Bft)
16.08.2011 00:00 23,0 C 13,7 C 0,0 UV-I 0,0 C 60 % 86 % 0 % 1019,6 hPa 0,0 l/m 0,0 km/h (0 Bft) 0,00 h 0,00 h 0,0 km/h (0 Bft)
16.08.2011 01:00 22,8 C 13,6 C 0,0 UV-I 0,0 C 61 % 88 % 0 % 1019,8 hPa 0,0 l/m 0,0 km/h (0 Bft) 0,00 h 0,00 h 0,0 km/h (0 Bft)
16.08.2011 02:00 22,7 C 13,7 C 0,0 UV-I 0,0 C 61 % 89 % 0 % 1019,1 hPa 0,0 l/m 0,0 km/h (0 Bft) 0,00 h 0,00 h 0,0 km/h (0 Bft)
16.08.2011 03:00 22,6 C 13,6 C 0,0 UV-I 0,0 C 61 % 90 % 0 % 1018,9 hPa 0,0 l/m 0,0 km/h (0 Bft) 0,00 h 0,00 h 0,0 km/h (0 Bft)
16.08.2011 04:00 22,6 C 13,7 C 0,0 UV-I 0,0 C 61 % 91 % 0 % 1018,6 hPa 0,0 l/m 0,0 km/h (0 Bft) 0,00 h 0,00 h 0,0 km/h (0 Bft)
16.08.2011 05:00 22,4 C 13,7 C 0,0 UV-I 0,0 C 62 % 91 % 0 % 1018,3 hPa 0,0 l/m 0,0 km/h (0 Bft) 0,00 h 0,00 h 0,0 km/h (0 Bft)
16.08.2011 06:00 22,3 C 13,6 C 0,0 UV-I 0,0 C 62 % 91 % 0 % 1018,3 hPa 0,0 l/m 0,0 km/h (0 Bft) 0,00 h 0,00 h 0,0 km/h (0 Bft)
16.08.2011 07:00 22,3 C 14,1 C 0,0 UV-I 0,1 C 62 % 91 % 2 % 1018,1 hPa 0,0 l/m 0,1 km/h (0 Bft) 0,00 h 0,00 h 0,1 km/h (0 Bft)
16.08.2011 08:00 22,4 C 14,7 C 0,0 UV-I 0,0 C 62 % 90 % 0 % 1018,3 hPa 0,0 l/m 0,0 km/h (0 Bft) 0,00 h 0,10 h 0,2 km/h (0 Bft)
16.08.2011 09:00 22,4 C 15,1 C 0,0 UV-I 0,0 C 62 % 90 % 1 % 1018,7 hPa 0,1 l/m 1,2 km/h (1 Bft) 0,00 h 0,20 h 2,1 km/h (1 Bft)
16.08.2011 10:00 22,5 C 16,4 C 0,5 UV-I 1,6 C 62 % 89 % 45 % 1018,3 hPa 0,0 l/m 2,5 km/h (1 Bft) 0,00 h 0,00 h 4,3 km/h (1 Bft)
16.08.2011 11:00 22,8 C 18,3 C 1,1 UV-I 3,2 C 61 % 83 % 81 % 1018,5 hPa 0,0 l/m 2,1 km/h (1 Bft) 0,53 h 0,00 h 2,6 km/h (1 Bft)
16.08.2011 12:00 23,2 C 19,9 C 1,6 UV-I 3,8 C 61 % 76 % 94 % 1018,0 hPa 0,0 l/m 2,2 km/h (1 Bft) 0,83 h 0,07 h 2,9 km/h (1 Bft)
16.08.2011 13:00 23,7 C 21,5 C 2,3 UV-I 5,4 C 59 % 66 % 100 % 1018,4 hPa 0,0 l/m 5,0 km/h (1 Bft) 1,00 h 0,00 h 6,2 km/h (2 Bft)
16.08.2011 14:00 24,4 C 22,2 C 2,8 UV-I 4,4 C 57 % 57 % 99 % 1018,3 hPa 0,0 l/m 6,9 km/h (2 Bft) 1,00 h 0,00 h 8,4 km/h (2 Bft)
16.08.2011 15:00 25,4 C 23,1 C 3,7 UV-I 4,4 C 54 % 49 % 100 % 1018,6 hPa 0,0 l/m 7,2 km/h (2 Bft) 1,00 h 0,00 h 8,1 km/h (2 Bft)
16.08.2011 16:00 26,0 C 23,5 C 3,6 UV-I 3,7 C 51 % 47 % 93 % 1018,5 hPa 0,0 l/m 5,2 km/h (1 Bft) 0,77 h 0,00 h 6,2 km/h (2 Bft)
16.08.2011 17:00 26,3 C 23,9 C 2,6 UV-I 4,4 C 49 % 44 % 100 % 1018,5 hPa 0,0 l/m 5,3 km/h (1 Bft) 1,00 h 0,00 h 6,8 km/h (2 Bft)
16.08.2011 18:00 25,9 C 23,1 C 0,7 UV-I 1,7 C 49 % 46 % 46 % 1017,8 hPa 0,0 l/m 2,8 km/h (1 Bft) 0,27 h 0,00 h 3,6 km/h (1 Bft)
16.08.2011 19:00 25,3 C 22,0 C 0,1 UV-I 0,1 C 51 % 51 % 2 % 1017,5 hPa 0,0 l/m 0,8 km/h (0 Bft) 0,00 h 0,00 h 0,7 km/h (0 Bft)
16.08.2011 20:00 24,9 C 20,7 C 0,0 UV-I 0,0 C 52 % 57 % 0 % 1017,5 hPa 0,0 l/m 0,1 km/h (0 Bft) 0,00 h 0,00 h 0,2 km/h (0 Bft)
16.08.2011 21:00 24,5 C 19,0 C 0,0 UV-I 0,0 C 54 % 65 % 0 % 1017,6 hPa 0,0 l/m 0,0 km/h (0 Bft) 0,00 h 0,00 h 0,0 km/h (0 Bft)
16.08.2011 22:00 24,1 C 18,3 C 0,0 UV-I 0,0 C 55 % 69 % 0 % 1017,7 hPa 0,0 l/m 0,1 km/h (0 Bft) 0,00 h 0,00 h 0,2 km/h (0 Bft)
16.08.2011 23:00 23,9 C 17,8 C 0,0 UV-I 0,0 C 56 % 71 % 0 % 1017,5 hPa 0,0 l/m 0,0 km/h (0 Bft) 0,00 h 0,00 h 0,1 km/h (0 Bft)
17.08.2011 00:00 23,8 C 17,8 C 0,0 UV-I 0,0 C 56 % 71 % 0 % 1017,1 hPa 0,0 l/m 1,9 km/h (1 Bft) 0,00 h 0,00 h 2,8 km/h (1 Bft)
17.08.2011 01:00 23,6 C 17,7 C 0,0 UV-I 0,0 C 56 % 70 % 0 % 1016,7 hPa 0,0 l/m 2,1 km/h (1 Bft) 0,00 h 0,00 h 2,4 km/h (1 Bft)
17.08.2011 02:00 23,5 C 16,9 C 0,0 UV-I 0,0 C 57 % 73 % 0 % 1016,8 hPa 0,0 l/m 1,0 km/h (0 Bft) 0,00 h 0,00 h 1,2 km/h (1 Bft)
17.08.2011 03:00 23,4 C 16,9 C 0,0 UV-I 0,0 C 57 % 76 % 0 % 1016,5 hPa 0,0 l/m 0,8 km/h (0 Bft) 0,00 h 0,00 h 1,5 km/h (1 Bft)
17.08.2011 04:00 23,2 C 17,0 C 0,0 UV-I 0,0 C 58 % 78 % 0 % 1016,3 hPa 0,0 l/m 0,2 km/h (0 Bft) 0,00 h 0,00 h 0,7 km/h (0 Bft)
17.08.2011 05:00 23,2 C 17,0 C 0,0 UV-I 0,0 C 58 % 79 % 0 % 1016,2 hPa 0,0 l/m 0,2 km/h (0 Bft) 0,00 h 0,00 h 0,2 km/h (0 Bft)
17.08.2011 06:00 23,2 C 16,3 C 0,0 UV-I 0,0 C 58 % 81 % 0 % 1016,1 hPa 0,0 l/m 0,1 km/h (0 Bft) 0,00 h 0,00 h 0,0 km/h (0 Bft)
17.08.2011 07:00 23,2 C 16,1 C 0,0 UV-I 0,1 C 59 % 83 % 2 % 1016,3 hPa 0,0 l/m 0,0 km/h (0 Bft) 0,00 h 0,00 h 0,1 km/h (0 Bft)
17.08.2011 08:00 23,2 C 16,6 C 0,4 UV-I 1,5 C 59 % 84 % 42 % 1016,7 hPa 0,0 l/m 0,6 km/h (0 Bft) 0,17 h 0,00 h 0,6 km/h (0 Bft)
17.08.2011 09:00 23,2 C 18,0 C 2,0 UV-I 6,0 C 59 % 81 % 100 % 1017,0 hPa 0,0 l/m 2,8 km/h (1 Bft) 1,00 h 0,00 h 4,2 km/h (1 Bft)
17.08.2011 10:00 23,3 C 19,9 C 4,1 UV-I 8,0 C 59 % 75 % 100 % 1017,0 hPa 0,0 l/m 2,4 km/h (1 Bft) 1,00 h 0,00 h 3,0 km/h (1 Bft)
17.08.2011 11:00 23,5 C 21,6 C 3,7 UV-I 7,7 C 59 % 69 % 100 % 1016,9 hPa 0,0 l/m 3,8 km/h (1 Bft) 1,00 h 0,00 h 5,2 km/h (1 Bft)
17.08.2011 12:00 23,9 C 22,9 C 1,8 UV-I 6,8 C 58 % 65 % 100 % 1017,0 hPa 0,0 l/m 4,2 km/h (1 Bft) 1,00 h 0,00 h 5,0 km/h (1 Bft)
17.08.2011 13:00 24,3 C 23,7 C 2,4 UV-I 5,1 C 58 % 63 % 100 % 1016,8 hPa 0,0 l/m 4,4 km/h (1 Bft) 1,00 h 0,00 h 5,6 km/h (1 Bft)
17.08.2011 14:00 25,2 C 24,9 C 3,5 UV-I 5,4 C 56 % 59 % 100 % 1016,8 hPa 0,0 l/m 4,8 km/h (1 Bft) 1,00 h 0,00 h 7,1 km/h (2 Bft)
17.08.2011 15:00 25,9 C 24,7 C 2,8 UV-I 3,9 C 54 % 60 % 96 % 1016,8 hPa 0,0 l/m 6,8 km/h (2 Bft) 0,90 h 0,00 h 7,5 km/h (2 Bft)
17.08.2011 16:00 26,5 C 24,9 C 3,1 UV-I 4,4 C 53 % 59 % 98 % 1016,6 hPa 0,0 l/m 5,7 km/h (1 Bft) 0,93 h 0,00 h 6,4 km/h (2 Bft)
17.08.2011 17:00 26,7 C 25,2 C 2,2 UV-I 5,2 C 53 % 58 % 100 % 1016,6 hPa 0,0 l/m 5,8 km/h (2 Bft) 1,00 h 0,00 h 6,5 km/h (2 Bft)
17.08.2011 18:00 26,3 C 24,4 C 0,8 UV-I 2,3 C 53 % 58 % 60 % 1016,1 hPa 0,0 l/m 6,9 km/h (2 Bft) 0,33 h 0,00 h 7,7 km/h (2 Bft)
17.08.2011 19:00 25,9 C 23,4 C 0,0 UV-I 0,2 C 54 % 60 % 4 % 1015,9 hPa 0,0 l/m 3,7 km/h (1 Bft) 0,00 h 0,00 h 4,1 km/h (1 Bft)
17.08.2011 20:00 25,5 C 22,6 C 0,0 UV-I 0,0 C 56 % 62 % 0 % 1015,7 hPa 0,0 l/m 5,0 km/h (1 Bft) 0,00 h 0,00 h 4,9 km/h (1 Bft)
17.08.2011 21:00 25,2 C 21,9 C 0,0 UV-I 0,0 C 56 % 65 % 0 % 1016,3 hPa 0,0 l/m 0,7 km/h (0 Bft) 0,00 h 0,03 h 0,7 km/h (0 Bft)
17.08.2011 22:00 25,0 C 20,9 C 0,0 UV-I 0,0 C 57 % 69 % 0 % 1016,2 hPa 0,0 l/m 4,5 km/h (1 Bft) 0,00 h 0,00 h 5,8 km/h (2 Bft)
17.08.2011 23:00 24,8 C 19,7 C 0,0 UV-I 0,0 C 58 % 76 % 0 % 1016,0 hPa 0,0 l/m 6,7 km/h (2 Bft) 0,00 h 0,00 h 6,4 km/h (2 Bft)
18.08.2011 00:00 24,6 C 18,5 C 0,0 UV-I 0,0 C 59 % 79 % 0 % 1016,1 hPa 0,0 l/m 6,7 km/h (2 Bft) 0,00 h 0,00 h 7,0 km/h (2 Bft)
18.08.2011 01:00 24,3 C 17,6 C 0,0 UV-I 0,0 C 59 % 80 % 0 % 1016,0 hPa 0,0 l/m 6,0 km/h (2 Bft) 0,00 h 0,00 h 7,1 km/h (2 Bft)
18.08.2011 02:00 24,1 C 17,0 C 0,0 UV-I 0,0 C 59 % 82 % 0 % 1015,9 hPa 0,0 l/m 6,4 km/h (2 Bft) 0,00 h 0,00 h 6,7 km/h (2 Bft)
18.08.2011 03:00 24,0 C 16,8 C 0,0 UV-I 0,0 C 59 % 84 % 0 % 1015,3 hPa 0,0 l/m 6,5 km/h (2 Bft) 0,00 h 0,00 h 6,6 km/h (2 Bft)
18.08.2011 04:00 23,8 C 16,6 C 0,0 UV-I 0,0 C 60 % 86 % 0 % 1015,0 hPa 0,0 l/m 5,8 km/h (2 Bft) 0,00 h 0,00 h 6,4 km/h (2 Bft)
18.08.2011 05:00 23,7 C 16,5 C 0,0 UV-I 0,0 C 60 % 87 % 0 % 1014,8 hPa 0,0 l/m 5,6 km/h (1 Bft) 0,00 h 0,00 h 5,8 km/h (1 Bft)
18.08.2011 06:00 23,6 C 16,6 C 0,0 UV-I 0,0 C 61 % 87 % 0 % 1014,8 hPa 0,0 l/m 4,1 km/h (1 Bft) 0,00 h 0,00 h 4,7 km/h (1 Bft)
18.08.2011 07:00 23,6 C 16,7 C 0,0 UV-I 0,0 C 61 % 87 % 1 % 1014,7 hPa 0,0 l/m 3,5 km/h (1 Bft) 0,00 h 0,00 h 3,8 km/h (1 Bft)
18.08.2011 08:00 23,6 C 17,5 C 0,2 UV-I 0,8 C 61 % 85 % 23 % 1014,5 hPa 0,0 l/m 2,0 km/h (1 Bft) 0,00 h 0,00 h 2,7 km/h (1 Bft)
18.08.2011 09:00 23,8 C 18,9 C 1,3 UV-I 4,2 C 60 % 81 % 88 % 1014,7 hPa 0,0 l/m 2,6 km/h (1 Bft) 0,73 h 0,00 h 3,8 km/h (1 Bft)
18.08.2011 10:00 23,9 C 20,9 C 3,0 UV-I 6,3 C 60 % 75 % 100 % 1014,7 hPa 0,0 l/m 3,6 km/h (1 Bft) 1,00 h 0,00 h 4,7 km/h (1 Bft)
18.08.2011 11:00 24,1 C 23,1 C 3,6 UV-I 6,9 C 60 % 70 % 100 % 1014,1 hPa 0,0 l/m 3,7 km/h (1 Bft) 1,00 h 0,00 h 3,9 km/h (1 Bft)
18.08.2011 12:00 24,4 C 24,8 C 2,2 UV-I 6,1 C 60 % 65 % 100 % 1013,9 hPa 0,0 l/m 3,6 km/h (1 Bft) 1,00 h 0,00 h 4,5 km/h (1 Bft)
18.08.2011 13:00 25,0 C 26,0 C 3,2 UV-I 6,6 C 60 % 63 % 100 % 1013,3 hPa 0,0 l/m 5,7 km/h (1 Bft) 1,00 h 0,00 h 5,4 km/h (1 Bft)
18.08.2011 14:00 25,9 C 27,6 C 3,4 UV-I 6,2 C 58 % 57 % 100 % 1013,1 hPa 0,0 l/m 4,9 km/h (1 Bft) 1,00 h 0,00 h 5,6 km/h (1 Bft)
18.08.2011 15:00 26,9 C 29,2 C 4,0 UV-I 5,5 C 56 % 52 % 100 % 1012,9 hPa 0,0 l/m 4,2 km/h (1 Bft) 1,00 h 0,00 h 4,9 km/h (1 Bft)
18.08.2011 16:00 27,5 C 29,9 C 3,3 UV-I 4,3 C 54 % 50 % 95 % 1011,8 hPa 0,0 l/m 5,3 km/h (1 Bft) 0,83 h 0,00 h 4,5 km/h (1 Bft)
18.08.2011 17:00 27,4 C 29,8 C 1,3 UV-I 2,8 C 55 % 52 % 78 % 1010,6 hPa 0,0 l/m 4,0 km/h (1 Bft) 0,47 h 0,00 h 4,6 km/h (1 Bft)
18.08.2011 18:00 26,9 C 28,5 C 0,1 UV-I 0,1 C 56 % 53 % 3 % 1010,0 hPa 0,1 l/m 1,5 km/h (1 Bft) 0,00 h 0,20 h 1,9 km/h (1 Bft)
18.08.2011 19:00 26,2 C 21,2 C 0,0 UV-I 0,0 C 58 % 75 % 0 % 1011,0 hPa 25,7 l/m 12,5 km/h (3 Bft) 0,00 h 0,93 h 15,9 km/h (3 Bft)
18.08.2011 20:00 25,6 C 18,0 C 0,0 UV-I 0,0 C 60 % 89 % 0 % 1010,7 hPa 2,0 l/m 3,4 km/h (1 Bft) 0,00 h 0,97 h 3,3 km/h (1 Bft)
18.08.2011 21:00 25,1 C 17,9 C 0,0 UV-I 0,0 C 62 % 91 % 0 % 1011,7 hPa 0,1 l/m 0,6 km/h (0 Bft) 0,00 h 0,07 h 0,7 km/h (0 Bft)
18.08.2011 22:00 24,8 C 18,0 C 0,0 UV-I 0,0 C 63 % 92 % 0 % 1011,1 hPa 0,0 l/m 4,7 km/h (1 Bft) 0,00 h 0,00 h 4,9 km/h (1 Bft)
18.08.2011 23:00 24,6 C 18,0 C 0,0 UV-I 0,0 C 64 % 93 % 0 % 1010,8 hPa 0,1 l/m 2,1 km/h (1 Bft) 0,00 h 0,00 h 2,7 km/h (1 Bft)
19.08.2011 00:00 24,3 C 18,1 C 0,0 UV-I 0,0 C 66 % 93 % 0 % 1010,7 hPa 0,0 l/m 2,3 km/h (1 Bft) 0,00 h 0,00 h 3,1 km/h (1 Bft)
19.08.2011 01:00 24,2 C 18,3 C 0,0 UV-I 0,0 C 66 % 93 % 0 % 1010,1 hPa 0,0 l/m 2,3 km/h (1 Bft) 0,00 h 0,00 h 3,3 km/h (1 Bft)
19.08.2011 02:00 24,1 C 18,8 C 0,0 UV-I 0,0 C 67 % 94 % 0 % 1010,2 hPa 1,5 l/m 0,4 km/h (0 Bft) 0,00 h 0,00 h 0,5 km/h (0 Bft)
19.08.2011 03:00 24,0 C 19,0 C 0,0 UV-I 0,0 C 68 % 94 % 0 % 1010,4 hPa 0,1 l/m 0,5 km/h (0 Bft) 0,00 h 0,00 h 0,6 km/h (0 Bft)
19.08.2011 04:00 24,0 C 19,2 C 0,0 UV-I 0,0 C 69 % 94 % 0 % 1010,8 hPa 1,2 l/m 1,1 km/h (1 Bft) 0,00 h 0,00 h 1,8 km/h (1 Bft)
19.08.2011 05:00 24,0 C 19,0 C 0,0 UV-I 0,0 C 69 % 94 % 0 % 1011,2 hPa 0,1 l/m 1,7 km/h (1 Bft) 0,00 h 0,00 h 2,5 km/h (1 Bft)
19.08.2011 06:00 23,9 C 18,6 C 0,0 UV-I 0,0 C 69 % 93 % 0 % 1011,9 hPa 0,0 l/m 3,4 km/h (1 Bft) 0,00 h 0,00 h 5,3 km/h (1 Bft)
19.08.2011 07:00 23,7 C 17,9 C 0,0 UV-I 0,0 C 68 % 93 % 0 % 1012,6 hPa 0,0 l/m 2,3 km/h (1 Bft) 0,00 h 0,00 h 2,6 km/h (1 Bft)
19.08.2011 08:00 23,6 C 17,2 C 0,0 UV-I 0,0 C 67 % 93 % 0 % 1013,9 hPa 0,1 l/m 5,8 km/h (2 Bft) 0,00 h 0,00 h 8,0 km/h (2 Bft)
19.08.2011 09:00 23,6 C 16,7 C 0,1 UV-I 0,5 C 66 % 93 % 15 % 1015,1 hPa 0,0 l/m 5,4 km/h (1 Bft) 0,00 h 0,00 h 6,2 km/h (2 Bft)
19.08.2011 10:00 23,5 C 16,8 C 0,4 UV-I 1,1 C 64 % 92 % 33 % 1016,0 hPa 0,0 l/m 4,4 km/h (1 Bft) 0,10 h 0,00 h 5,6 km/h (1 Bft)
19.08.2011 11:00 23,5 C 18,1 C 2,6 UV-I 5,0 C 60 % 85 % 100 % 1017,0 hPa 0,0 l/m 6,7 km/h (2 Bft) 1,00 h 0,00 h 6,6 km/h (2 Bft)
19.08.2011 12:00 23,7 C 18,8 C 1,1 UV-I 3,8 C 59 % 76 % 87 % 1017,7 hPa 0,0 l/m 6,4 km/h (2 Bft) 0,73 h 0,00 h 7,2 km/h (2 Bft)
19.08.2011 13:00 24,0 C 19,7 C 2,4 UV-I 4,3 C 58 % 68 % 92 % 1018,6 hPa 0,0 l/m 7,8 km/h (2 Bft) 0,80 h 0,00 h 8,4 km/h (2 Bft)
19.08.2011 14:00 25,0 C 21,1 C 3,0 UV-I 5,1 C 56 % 61 % 100 % 1019,5 hPa 0,0 l/m 6,8 km/h (2 Bft) 1,00 h 0,00 h 7,8 km/h (2 Bft)
19.08.2011 15:00 25,9 C 21,7 C 3,4 UV-I 4,7 C 52 % 56 % 100 % 1020,1 hPa 0,0 l/m 6,6 km/h (2 Bft) 1,00 h 0,00 h 6,5 km/h (2 Bft)
19.08.2011 16:00 26,1 C 21,4 C 2,7 UV-I 3,1 C 50 % 55 % 82 % 1020,5 hPa 0,0 l/m 6,6 km/h (2 Bft) 0,53 h 0,00 h 8,0 km/h (2 Bft)
19.08.2011 17:00 26,3 C 21,8 C 2,0 UV-I 4,2 C 48 % 53 % 100 % 1020,9 hPa 0,0 l/m 7,7 km/h (2 Bft) 1,00 h 0,00 h 11,4 km/h (2 Bft)
19.08.2011 18:00 25,9 C 21,0 C 0,7 UV-I 1,2 C 49 % 56 % 34 % 1020,5 hPa 0,0 l/m 4,0 km/h (1 Bft) 0,03 h 0,00 h 5,0 km/h (1 Bft)
19.08.2011 19:00 25,5 C 20,3 C 0,2 UV-I 0,0 C 51 % 58 % 0 % 1020,7 hPa 0,0 l/m 2,0 km/h (1 Bft) 0,00 h 0,00 h 2,2 km/h (1 Bft)
19.08.2011 20:00 25,1 C 18,9 C 0,0 UV-I 0,0 C 52 % 62 % 0 % 1020,8 hPa 0,0 l/m 0,2 km/h (0 Bft) 0,00 h 0,00 h 0,0 km/h (0 Bft)
19.08.2011 21:00 24,7 C 16,6 C 0,0 UV-I 0,0 C 54 % 72 % 0 % 1021,1 hPa 0,0 l/m 0,0 km/h (0 Bft) 0,00 h 0,00 h 0,0 km/h (0 Bft)
19.08.2011 22:00 24,2 C 15,0 C 0,0 UV-I 0,0 C 55 % 79 % 0 % 1021,2 hPa 0,0 l/m 0,0 km/h (0 Bft) 0,00 h 0,00 h 0,0 km/h (0 Bft)
19.08.2011 23:00 24,0 C 14,0 C 0,0 UV-I 0,0 C 56 % 85 % 0 % 1021,2 hPa 0,0 l/m 0,0 km/h (0 Bft) 0,00 h 0,00 h 0,0 km/h (0 Bft)
20.08.2011 00:00 23,7 C 13,4 C 0,0 UV-I 0,0 C 56 % 87 % 0 % 1021,5 hPa 0,0 l/m 0,0 km/h (0 Bft) 0,00 h 0,00 h 0,0 km/h (0 Bft)
20.08.2011 01:00 23,5 C 12,8 C 0,0 UV-I 0,0 C 57 % 89 % 0 % 1021,5 hPa 0,0 l/m 0,0 km/h (0 Bft) 0,00 h 0,00 h 0,0 km/h (0 Bft)
20.08.2011 02:00 23,3 C 12,4 C 0,0 UV-I 0,0 C 57 % 90 % 0 % 1021,3 hPa 0,0 l/m 0,0 km/h (0 Bft) 0,00 h 0,00 h 0,0 km/h (0 Bft)
20.08.2011 03:00 23,1 C 12,0 C 0,0 UV-I 0,0 C 57 % 90 % 0 % 1021,1 hPa 0,0 l/m 0,0 km/h (0 Bft) 0,00 h 0,00 h 0,0 km/h (0 Bft)
20.08.2011 04:00 23,0 C 11,7 C 0,0 UV-I 0,0 C 58 % 91 % 0 % 1021,1 hPa 0,0 l/m 0,0 km/h (0 Bft) 0,00 h 0,00 h 0,0 km/h (0 Bft)
20.08.2011 05:00 22,8 C 11,7 C 0,0 UV-I 0,0 C 58 % 92 % 0 % 1021,4 hPa 0,0 l/m 0,1 km/h (0 Bft) 0,00 h 0,00 h 0,4 km/h (0 Bft)
20.08.2011 06:00 22,7 C 11,7 C 0,0 UV-I 0,0 C 58 % 92 % 0 % 1021,4 hPa 0,0 l/m 2,4 km/h (1 Bft) 0,00 h 0,00 h 3,9 km/h (1 Bft)
20.08.2011 07:00 22,6 C 12,2 C 0,0 UV-I 0,0 C 58 % 92 % 0 % 1021,2 hPa 0,0 l/m 3,2 km/h (1 Bft) 0,00 h 0,00 h 3,5 km/h (1 Bft)
20.08.2011 08:00 22,6 C 13,6 C 0,2 UV-I 1,4 C 58 % 93 % 30 % 1021,6 hPa 0,0 l/m 4,2 km/h (1 Bft) 0,27 h 0,00 h 5,2 km/h (1 Bft)
20.08.2011 09:00 22,7 C 16,9 C 1,7 UV-I 7,1 C 59 % 91 % 100 % 1021,8 hPa 0,0 l/m 2,4 km/h (1 Bft) 1,00 h 0,00 h 2,9 km/h (1 Bft)
20.08.2011 10:00 22,9 C 19,9 C 4,2 UV-I 7,9 C 59 % 81 % 100 % 1021,9 hPa 0,0 l/m 1,7 km/h (1 Bft) 1,00 h 0,00 h 2,4 km/h (1 Bft)
20.08.2011 11:00 23,1 C 21,7 C 4,4 UV-I 7,7 C 59 % 69 % 100 % 1021,7 hPa 0,0 l/m 2,4 km/h (1 Bft) 1,00 h 0,00 h 3,9 km/h (1 Bft)
20.08.2011 12:00 23,4 C 23,2 C 1,9 UV-I 7,1 C 58 % 62 % 100 % 1021,6 hPa 0,0 l/m 2,7 km/h (1 Bft) 1,00 h 0,00 h 3,7 km/h (1 Bft)
20.08.2011 13:00 23,9 C 24,2 C 3,4 UV-I 6,2 C 56 % 56 % 100 % 1021,4 hPa 0,0 l/m 3,5 km/h (1 Bft) 1,00 h 0,00 h 4,6 km/h (1 Bft)
20.08.2011 14:00 25,1 C 25,2 C 3,9 UV-I 5,9 C 54 % 53 % 100 % 1021,5 hPa 0,0 l/m 3,7 km/h (1 Bft) 1,00 h 0,00 h 4,2 km/h (1 Bft)
20.08.2011 15:00 26,2 C 26,4 C 4,8 UV-I 5,9 C 51 % 47 % 100 % 1021,3 hPa 0,0 l/m 2,9 km/h (1 Bft) 1,00 h 0,00 h 3,0 km/h (1 Bft)
20.08.2011 16:00 26,9 C 26,6 C 4,0 UV-I 5,0 C 48 % 47 % 100 % 1021,3 hPa 0,0 l/m 3,3 km/h (1 Bft) 1,00 h 0,00 h 4,6 km/h (1 Bft)
20.08.2011 17:00 27,0 C 27,0 C 2,3 UV-I 5,1 C 49 % 47 % 100 % 1021,0 hPa 0,0 l/m 1,5 km/h (1 Bft) 1,00 h 0,00 h 2,6 km/h (1 Bft)
20.08.2011 18:00 26,4 C 25,8 C 0,7 UV-I 0,9 C 50 % 50 % 24 % 1020,4 hPa 0,0 l/m 3,3 km/h (1 Bft) 0,07 h 0,00 h 3,3 km/h (1 Bft)
20.08.2011 19:00 25,8 C 24,5 C 0,2 UV-I 0,0 C 51 % 54 % 0 % 1019,8 hPa 0,0 l/m 4,4 km/h (1 Bft) 0,00 h 0,00 h 4,4 km/h (1 Bft)
20.08.2011 20:00 25,4 C 23,0 C 0,0 UV-I 0,0 C 53 % 60 % 0 % 1019,2 hPa 0,0 l/m 2,2 km/h (1 Bft) 0,00 h 0,00 h 2,0 km/h (1 Bft)
20.08.2011 21:00 25,1 C 20,6 C 0,0 UV-I 0,0 C 55 % 69 % 0 % 1019,0 hPa 0,0 l/m 0,0 km/h (0 Bft) 0,00 h 0,17 h 0,0 km/h (0 Bft)
20.08.2011 22:00 24,7 C 18,9 C 0,0 UV-I 0,0 C 57 % 76 % 0 % 1019,0 hPa 0,0 l/m 0,0 km/h (0 Bft) 0,00 h 0,17 h 0,0 km/h (0 Bft)
20.08.2011 23:00 24,4 C 18,1 C 0,0 UV-I 0,0 C 58 % 81 % 0 % 1018,8 hPa 0,0 l/m 0,0 km/h (0 Bft) 0,00 h 0,20 h 0,0 km/h (0 Bft)
21.08.2011 00:00 24,2 C 17,0 C 0,0 UV-I 0,0 C 58 % 83 % 0 % 1018,4 hPa 0,0 l/m 0,0 km/h (0 Bft) 0,00 h 0,23 h 0,0 km/h (0 Bft)
21.08.2011 01:00 23,9 C 16,0 C 0,0 UV-I 0,0 C 59 % 86 % 0 % 1017,8 hPa 0,0 l/m 0,0 km/h (0 Bft) 0,00 h 0,27 h 0,0 km/h (0 Bft)
21.08.2011 02:00 23,6 C 15,4 C 0,0 UV-I 0,0 C 59 % 88 % 0 % 1017,1 hPa 0,0 l/m 0,0 km/h (0 Bft) 0,00 h 0,43 h 0,0 km/h (0 Bft)
21.08.2011 03:00 23,4 C 14,9 C 0,0 UV-I 0,0 C 59 % 90 % 0 % 1016,5 hPa 0,0 l/m 0,1 km/h (0 Bft) 0,00 h 0,53 h 0,4 km/h (0 Bft)
21.08.2011 04:00 23,2 C 15,5 C 0,0 UV-I 0,0 C 59 % 90 % 0 % 1015,7 hPa 0,0 l/m 2,9 km/h (1 Bft) 0,00 h 0,50 h 3,7 km/h (1 Bft)
21.08.2011 05:00 23,1 C 15,7 C 0,0 UV-I 0,0 C 59 % 89 % 0 % 1015,5 hPa 0,0 l/m 0,6 km/h (0 Bft) 0,00 h 0,33 h 1,3 km/h (1 Bft)
21.08.2011 06:00 23,0 C 15,7 C 0,0 UV-I 0,0 C 58 % 87 % 0 % 1015,4 hPa 0,0 l/m 1,6 km/h (1 Bft) 0,00 h 0,33 h 2,3 km/h (1 Bft)
21.08.2011 07:00 22,9 C 16,4 C 0,0 UV-I 0,0 C 58 % 85 % 0 % 1015,4 hPa 0,0 l/m 3,4 km/h (1 Bft) 0,00 h 0,00 h 4,5 km/h (1 Bft)
21.08.2011 08:00 23,0 C 17,2 C 0,0 UV-I 0,1 C 58 % 83 % 4 % 1015,3 hPa 0,0 l/m 4,5 km/h (1 Bft) 0,00 h 0,13 h 5,1 km/h (1 Bft)
21.08.2011 09:00 23,3 C 18,3 C 0,4 UV-I 0,7 C 58 % 82 % 20 % 1015,3 hPa 0,0 l/m 4,8 km/h (1 Bft) 0,00 h 0,23 h 6,8 km/h (2 Bft)
21.08.2011 10:00 23,6 C 20,1 C 0,9 UV-I 2,0 C 59 % 83 % 58 % 1015,0 hPa 0,0 l/m 2,5 km/h (1 Bft) 0,00 h 0,00 h 4,7 km/h (1 Bft)
21.08.2011 11:00 24,0 C 22,3 C 2,1 UV-I 3,4 C 59 % 83 % 86 % 1014,9 hPa 0,0 l/m 3,1 km/h (1 Bft) 0,57 h 0,00 h 5,5 km/h (1 Bft)
21.08.2011 12:00 24,3 C 25,6 C 2,3 UV-I 5,0 C 59 % 77 % 100 % 1014,6 hPa 0,0 l/m 7,8 km/h (2 Bft) 1,00 h 0,00 h 13,9 km/h (3 Bft)
21.08.2011 13:00 24,9 C 28,2 C 3,4 UV-I 4,6 C 61 % 68 % 100 % 1014,5 hPa 0,0 l/m 8,1 km/h (2 Bft) 1,00 h 0,00 h 11,8 km/h (2 Bft)
21.08.2011 14:00 25,9 C 29,6 C 3,3 UV-I 4,2 C 60 % 63 % 99 % 1014,7 hPa 0,0 l/m 8,0 km/h (2 Bft) 1,00 h 0,00 h 11,5 km/h (2 Bft)
21.08.2011 15:00 26,7 C 30,8 C 2,5 UV-I 3,5 C 58 % 60 % 84 % 1014,9 hPa 0,0 l/m 5,8 km/h (2 Bft) 0,70 h 0,00 h 8,0 km/h (2 Bft)
21.08.2011 16:00 26,5 C 29,0 C 0,4 UV-I 0,3 C 59 % 61 % 8 % 1014,9 hPa 0,0 l/m 2,0 km/h (1 Bft) 0,00 h 0,53 h 3,8 km/h (1 Bft)
21.08.2011 17:00 26,2 C 27,8 C 0,4 UV-I 0,4 C 60 % 66 % 12 % 1014,5 hPa 0,0 l/m 0,6 km/h (0 Bft) 0,00 h 0,03 h 1,5 km/h (1 Bft)
21.08.2011 18:00 26,2 C 28,1 C 0,5 UV-I 1,0 C 61 % 66 % 29 % 1014,4 hPa 0,0 l/m 2,0 km/h (1 Bft) 0,00 h 0,00 h 5,4 km/h (1 Bft)
21.08.2011 19:00 26,1 C 27,9 C 0,2 UV-I 0,2 C 61 % 66 % 7 % 1014,3 hPa 0,0 l/m 0,6 km/h (0 Bft) 0,00 h 0,00 h 2,0 km/h (1 Bft)
21.08.2011 20:00 26,0 C 26,1 C 0,0 UV-I 0,0 C 62 % 72 % 0 % 1014,4 hPa 4,5 l/m 1,9 km/h (1 Bft) 0,00 h 0,47 h 3,5 km/h (1 Bft)
21.08.2011 21:00 25,8 C 22,8 C 0,0 UV-I 0,0 C 63 % 85 % 0 % 1015,0 hPa 0,0 l/m 0,0 km/h (0 Bft) 0,00 h 0,00 h 0,0 km/h (0 Bft)
21.08.2011 22:00 25,5 C 22,0 C 0,0 UV-I 0,0 C 64 % 89 % 0 % 1015,7 hPa 0,0 l/m 0,0 km/h (0 Bft) 0,00 h 0,00 h 0,0 km/h (0 Bft)
21.08.2011 23:00 25,3 C 21,5 C 0,0 UV-I 0,0 C 65 % 90 % 0 % 1016,4 hPa 0,1 l/m 0,1 km/h (0 Bft) 0,00 h 0,00 h 0,0 km/h (0 Bft)
Min-Datum _ 15.08.11 20.08.11 15.08.11 15.08.11 19.08.11 16.08.11 15.08.11 18.08.11 - 15.08.11 - - 15.08.11
_ Min-Zeit 06:58 04:50 00:00 00:00 17:28 17:24 00:00 18:06 - 00:00 - - 00:00
Minimum _ 21,8 C 11,6 C 0,0 UV-I 0,0 C 47 % 42 % 0 % 1009,8 hPa - 0,0 km/h (0 Bft) - - 0,0 km/h (0 Bft)
Max-Datum _ 18.08.11 21.08.11 20.08.11 17.08.11 19.08.11 19.08.11 15.08.11 20.08.11 18.08.11 18.08.11 15.08.11 16.08.11 18.08.11
_ Max-Zeit 16:38 15:10 09:48 11:08 03:28 02:24 08:44 10:26 19:38 19:12 08:42 08:12 19:22
Maximum _ 27,7 C 31,2 C 6,2 UV-I 9,0 C 69 % 94 % 100 % 1022,0 hPa 25,7 l/m 19,7 km/h
W (3 Bft)
0,03 h 0,03 h 44,7 km/h
W (6 Bft)
Durchschnitt _ 24,2 C 19,5 C 0,9 UV-I 1,9 C 59 % 76 % 35 % 1016,5 hPa #36,0 l/m 2,9 km/h (1 Bft) #52:20 h #7:10 h 3,5 km/h (1 Bft)
© 2012 W. Hausmann